createdAt,value
2023-02-07T00:01:21.294Z,0.43
2023-02-07T00:06:21.243Z,0.35
2023-02-07T00:11:20.654Z,0.35
2023-02-07T00:16:20.324Z,0.50
2023-02-07T00:21:19.623Z,0.45
2023-02-07T00:26:17.949Z,0.40
2023-02-07T00:31:18.466Z,0.50
2023-02-07T00:36:18.689Z,0.43
2023-02-07T00:41:18.712Z,0.40
2023-02-07T00:46:17.452Z,0.40
2023-02-07T00:51:15.615Z,0.50
2023-02-07T00:56:17.777Z,0.40
2023-02-07T01:01:15.752Z,0.47
2023-02-07T01:06:13.653Z,0.40
2023-02-07T01:11:13.711Z,0.40
2023-02-07T01:16:19.938Z,0.40
2023-02-07T01:21:18.473Z,0.50
2023-02-07T01:26:16.338Z,0.50
2023-02-07T01:31:14.569Z,0.50
2023-02-07T01:36:15.870Z,0.45
2023-02-07T01:41:14.150Z,0.40
2023-02-07T01:46:12.037Z,0.40
2023-02-07T01:51:09.903Z,0.43
2023-02-07T01:56:17.659Z,0.50
2023-02-07T02:01:26.112Z,0.40
2023-02-07T02:06:25.508Z,0.40
2023-02-07T02:11:34.555Z,0.50
2023-02-07T02:16:35.980Z,0.40
2023-02-07T02:21:54.804Z,0.40
2023-02-07T02:26:59.126Z,0.45
2023-02-07T02:32:16.161Z,0.45
2023-02-07T02:42:16.282Z,0.50
2023-02-07T02:47:15.600Z,0.47
2023-02-07T02:52:13.491Z,0.40
2023-02-07T02:57:38.403Z,0.40
2023-02-07T03:02:44.619Z,0.40
2023-02-07T03:07:45.399Z,0.50
2023-02-07T03:12:45.346Z,0.40
2023-02-07T03:17:46.605Z,0.40
2023-02-07T03:22:45.671Z,0.40
2023-02-07T03:27:44.049Z,0.30
2023-02-07T03:32:43.732Z,0.50
2023-02-07T03:37:44.263Z,0.40
2023-02-07T03:42:43.645Z,0.40
2023-02-07T03:47:41.728Z,0.32
2023-02-07T03:52:39.553Z,0.47
2023-02-07T03:57:38.719Z,0.50
2023-02-07T04:02:36.588Z,0.50
2023-02-07T04:07:34.438Z,0.50
2023-02-07T04:12:33.721Z,0.50
2023-02-07T04:17:33.049Z,0.50
2023-02-07T04:22:31.101Z,0.50
2023-02-07T04:27:28.931Z,0.40
2023-02-07T04:32:26.835Z,0.50
2023-02-07T04:37:26.068Z,0.50
2023-02-07T04:42:23.947Z,0.43
2023-02-07T04:47:21.844Z,0.30
2023-02-07T04:52:19.743Z,0.40
2023-02-07T04:57:18.930Z,0.45
2023-02-07T05:02:16.770Z,0.50
2023-02-07T05:07:14.602Z,0.47
2023-02-07T05:12:13.057Z,0.50
2023-02-07T05:17:12.765Z,0.50
2023-02-07T05:22:10.594Z,0.43
2023-02-07T05:27:08.451Z,0.40
2023-02-07T05:32:24.018Z,0.45
2023-02-07T05:37:23.243Z,0.40
2023-02-07T05:42:21.070Z,0.40
2023-02-07T05:47:18.919Z,0.40
2023-02-07T05:52:16.810Z,0.40
2023-02-07T05:57:16.000Z,0.50
2023-02-07T06:02:13.837Z,0.43
2023-02-07T06:07:11.710Z,0.60
2023-02-07T06:12:09.577Z,0.43
2023-02-07T06:17:08.756Z,0.45
2023-02-07T06:22:06.560Z,0.47
2023-02-07T06:27:04.393Z,0.35
2023-02-07T06:32:02.246Z,0.40
2023-02-07T06:37:01.425Z,0.40
2023-02-07T06:41:59.284Z,0.40
2023-02-07T06:46:58.110Z,0.40
2023-02-07T06:51:56.209Z,0.40
2023-02-07T06:56:55.512Z,0.40
2023-02-07T07:01:53.534Z,0.50
2023-02-07T07:06:51.464Z,0.40
2023-02-07T07:11:50.181Z,0.50
2023-02-07T07:16:49.954Z,0.50
2023-02-07T07:21:48.373Z,0.50
2023-02-07T07:26:49.840Z,0.40
2023-02-07T07:31:49.503Z,0.50
2023-02-07T07:36:47.332Z,0.40
2023-02-07T07:41:46.116Z,0.40
2023-02-07T07:47:00.434Z,0.40
2023-02-07T07:51:58.784Z,0.40
2023-02-07T07:56:56.619Z,0.40
2023-02-07T08:01:54.427Z,0.40
2023-02-07T08:06:53.632Z,0.32
2023-02-07T08:11:51.550Z,0.45
2023-02-07T08:16:49.732Z,0.40
2023-02-07T08:21:47.543Z,0.40
2023-02-07T08:26:47.920Z,0.40
2023-02-07T08:31:47.743Z,0.40
2023-02-07T08:36:45.641Z,0.30
2023-02-07T08:41:43.950Z,0.22
2023-02-07T08:46:43.211Z,0.43
2023-02-07T08:51:42.316Z,0.30
2023-02-07T08:56:40.192Z,0.40
2023-02-07T09:01:38.201Z,0.30
2023-02-07T09:06:37.419Z,0.40
2023-02-07T09:11:35.296Z,0.28
2023-02-07T09:16:33.280Z,0.28
2023-02-07T09:21:33.463Z,0.30
2023-02-07T09:26:34.498Z,0.30
2023-02-07T09:31:32.943Z,0.20
2023-02-07T09:36:32.099Z,0.20
2023-02-07T09:41:35.523Z,0.30
2023-02-07T09:46:35.995Z,0.10
2023-02-07T09:51:35.291Z,0.30
2023-02-07T09:56:36.329Z,0.20
2023-02-07T10:01:37.268Z,0.30
2023-02-07T10:06:36.242Z,0.15
2023-02-07T10:11:42.106Z,0.30
2023-02-07T10:16:48.221Z,0.20
2023-02-07T10:21:50.714Z,0.30
2023-02-07T10:26:53.873Z,0.20
2023-02-07T10:31:53.222Z,0.20
2023-02-07T10:36:52.027Z,0.28
2023-02-07T10:41:52.277Z,0.30
2023-02-07T10:46:55.377Z,0.30
2023-02-07T10:51:54.505Z,0.30
2023-02-07T10:56:57.837Z,0.30
2023-02-07T11:01:59.662Z,0.10
2023-02-07T11:07:01.232Z,0.20
2023-02-07T11:12:50.898Z,0.20
2023-02-07T11:18:38.092Z,0.30
2023-02-07T11:24:15.711Z,0.20
2023-02-07T11:29:16.137Z,0.20
2023-02-07T11:34:28.658Z,0.20
2023-02-07T11:39:26.623Z,0.22
2023-02-07T11:44:25.757Z,0.20
2023-02-07T11:49:27.354Z,0.22
2023-02-07T11:54:25.668Z,0.30
2023-02-07T11:59:25.303Z,0.20
2023-02-07T12:04:28.467Z,0.30
2023-02-07T12:09:33.120Z,0.30
2023-02-07T12:14:33.945Z,0.20
2023-02-07T12:19:34.506Z,0.20
2023-02-07T12:24:36.527Z,0.20
2023-02-07T12:29:39.010Z,0.30
2023-02-07T12:34:42.132Z,0.28
2023-02-07T12:39:44.322Z,0.22
2023-02-07T12:44:44.300Z,0.20
2023-02-07T12:49:50.717Z,0.20
2023-02-07T12:54:59.445Z,0.30
2023-02-07T13:00:01.701Z,0.20
2023-02-07T13:05:17.436Z,0.20
2023-02-07T13:10:23.638Z,0.30
2023-02-07T13:15:24.688Z,0.20
2023-02-07T13:20:40.840Z,0.30
2023-02-07T13:25:43.632Z,0.20
2023-02-07T13:30:42.470Z,0.25
2023-02-07T13:35:41.220Z,0.20
2023-02-07T13:40:48.246Z,0.20
2023-02-07T13:45:50.920Z,0.30
2023-02-07T13:50:51.937Z,0.20
2023-02-07T13:55:51.268Z,0.22
2023-02-07T14:01:10.041Z,0.20
2023-02-07T14:06:21.572Z,0.30
2023-02-07T14:11:27.459Z,0.20
2023-02-07T14:16:45.055Z,0.20
2023-02-07T14:21:43.172Z,0.20
2023-02-07T14:26:51.690Z,0.20
2023-02-07T14:31:50.429Z,0.20
2023-02-07T14:36:48.901Z,0.20
2023-02-07T14:41:49.296Z,0.20
2023-02-07T14:46:49.688Z,0.30
2023-02-07T14:51:49.360Z,0.20
2023-02-07T14:57:01.615Z,0.20
2023-02-07T15:02:19.624Z,0.20
2023-02-07T15:07:18.182Z,0.20
2023-02-07T15:12:27.096Z,0.30
2023-02-07T15:17:33.471Z,0.22
2023-02-07T15:22:37.336Z,0.20
2023-02-07T15:27:36.680Z,0.28
2023-02-07T15:32:43.084Z,0.30
2023-02-07T15:37:41.034Z,0.35
2023-02-07T15:42:50.334Z,0.30
2023-02-07T15:47:57.068Z,0.20
2023-02-07T15:52:56.108Z,0.20
2023-02-07T15:57:55.444Z,0.30
2023-02-07T16:02:56.687Z,0.40
2023-02-07T16:07:55.946Z,0.25
2023-02-07T16:13:00.657Z,0.20
2023-02-07T16:17:58.526Z,0.30
2023-02-07T16:22:57.399Z,0.20
2023-02-07T16:27:56.758Z,0.30
2023-02-07T16:32:55.622Z,0.20
2023-02-07T16:37:54.776Z,0.20
2023-02-07T16:42:54.369Z,0.20
2023-02-07T16:47:57.812Z,0.38
2023-02-07T16:52:57.320Z,0.30
2023-02-07T16:57:57.026Z,0.30
2023-02-07T17:02:56.472Z,0.30
2023-02-07T17:07:54.429Z,0.20
2023-02-07T17:12:52.332Z,0.40
2023-02-07T17:17:50.683Z,0.30
2023-02-07T17:22:50.071Z,0.40
2023-02-07T17:27:48.018Z,0.30
2023-02-07T17:32:46.151Z,0.30
2023-02-07T17:37:47.091Z,0.40
2023-02-07T17:42:46.464Z,0.30
2023-02-07T17:47:45.219Z,0.30
2023-02-07T17:52:43.218Z,0.20
2023-02-07T17:57:41.679Z,0.30
2023-02-07T18:02:41.004Z,0.20
2023-02-07T18:07:38.983Z,0.30
2023-02-07T18:12:37.084Z,0.30
2023-02-07T18:17:34.916Z,0.32
2023-02-07T18:22:35.201Z,0.35
2023-02-07T18:27:33.143Z,0.20
2023-02-07T18:32:31.083Z,0.40
2023-02-07T18:37:29.180Z,0.30
2023-02-07T18:42:30.004Z,0.30
2023-02-07T18:47:28.043Z,0.40
2023-02-07T18:52:25.955Z,0.35
2023-02-07T18:57:23.808Z,0.30
2023-02-07T19:02:23.708Z,0.25
2023-02-07T19:07:21.609Z,0.30
2023-02-07T19:12:20.124Z,0.28
2023-02-07T19:17:20.132Z,0.30
2023-02-07T19:22:34.581Z,0.30
2023-02-07T19:27:33.664Z,0.38
2023-02-07T19:32:31.612Z,0.40
2023-02-07T19:37:30.871Z,0.40
2023-02-07T19:42:28.745Z,0.45
2023-02-07T19:47:26.728Z,0.47
2023-02-07T19:52:24.633Z,0.40
2023-02-07T19:57:24.128Z,0.40
2023-02-07T20:02:21.985Z,0.38
2023-02-07T20:07:19.870Z,0.40
2023-02-07T20:12:17.856Z,0.40
2023-02-07T20:17:17.135Z,0.32
2023-02-07T20:22:15.179Z,0.35
2023-02-07T20:27:13.152Z,0.30
2023-02-07T20:32:14.182Z,0.40
2023-02-07T20:37:13.531Z,0.32
2023-02-07T20:42:11.372Z,0.40
2023-02-07T20:47:11.870Z,0.47
2023-02-07T20:52:11.633Z,0.32
2023-02-07T20:57:10.925Z,0.50
2023-02-07T21:02:09.246Z,0.38
2023-02-07T21:07:07.086Z,0.50
2023-02-07T21:12:05.333Z,0.40
2023-02-07T21:17:21.185Z,0.30
2023-02-07T21:22:25.887Z,0.40
2023-02-07T21:27:23.804Z,0.30
2023-02-07T21:32:27.388Z,0.40
2023-02-07T21:37:26.293Z,0.40
2023-02-07T21:42:26.332Z,0.38
2023-02-07T21:47:26.238Z,0.30
2023-02-07T21:52:26.344Z,0.43
2023-02-07T21:57:24.453Z,0.38
2023-02-07T22:02:22.449Z,0.30
2023-02-07T22:07:21.663Z,0.45
2023-02-07T22:12:19.559Z,0.40
2023-02-07T22:17:19.039Z,0.35
2023-02-07T22:22:16.855Z,0.30
2023-02-07T22:27:16.129Z,0.40
2023-02-07T22:32:13.984Z,0.40
2023-02-07T22:37:11.790Z,0.40
2023-02-07T22:42:09.606Z,0.30
2023-02-07T22:47:08.877Z,0.35
2023-02-07T22:52:06.786Z,0.40
2023-02-07T22:57:06.272Z,0.30
2023-02-07T23:02:04.171Z,0.50
2023-02-07T23:07:03.441Z,0.40
2023-02-07T23:12:01.388Z,0.30
2023-02-07T23:16:59.266Z,0.35
2023-02-07T23:21:58.923Z,0.40
2023-02-07T23:26:58.201Z,0.45
2023-02-07T23:31:56.138Z,0.40
2023-02-07T23:36:54.064Z,0.40
2023-02-07T23:41:51.963Z,0.45
2023-02-07T23:46:51.228Z,0.40
2023-02-07T23:51:49.040Z,0.40
2023-02-07T23:56:46.952Z,0.30
